sensor_id;sensor_type;location;lat;lon;timestamp;temperature;humidity
8965;DHT22;4517;49.020;12.066;2022-09-09T00:21:43;13.00;99.90
8965;DHT22;4517;49.020;12.066;2022-09-09T00:24:32;13.10;99.90
8965;DHT22;4517;49.020;12.066;2022-09-09T00:27:11;13.10;99.90
8965;DHT22;4517;49.020;12.066;2022-09-09T00:30:12;13.00;99.90
8965;DHT22;4517;49.020;12.066;2022-09-09T00:32:39;12.90;99.90
8965;DHT22;4517;49.020;12.066;2022-09-09T00:35:31;13.00;99.90
8965;DHT22;4517;49.020;12.066;2022-09-09T00:38:15;12.90;99.90
8965;DHT22;4517;49.020;12.066;2022-09-09T00:40:50;12.90;99.90
8965;DHT22;4517;49.020;12.066;2022-09-09T00:48:22;12.90;99.90
8965;DHT22;4517;49.020;12.066;2022-09-09T00:50:56;12.80;99.90
8965;DHT22;4517;49.020;12.066;2022-09-09T00:53:51;12.90;99.90
8965;DHT22;4517;49.020;12.066;2022-09-09T00:56:21;13.10;99.90
8965;DHT22;4517;49.020;12.066;2022-09-09T00:59:20;13.20;99.90
8965;DHT22;4517;49.020;12.066;2022-09-09T01:01:48;13.40;99.90
8965;DHT22;4517;49.020;12.066;2022-09-09T01:04:23;13.70;99.90
8965;DHT22;4517;49.020;12.066;2022-09-09T01:06:55;13.90;99.90
8965;DHT22;4517;49.020;12.066;2022-09-09T01:12:25;14.20;99.90
8965;DHT22;4517;49.020;12.066;2022-09-09T01:14:56;14.30;99.90
8965;DHT22;4517;49.020;12.066;2022-09-09T01:17:41;14.40;99.90
8965;DHT22;4517;49.020;12.066;2022-09-09T01:20:14;14.50;99.90
8965;DHT22;4517;49.020;12.066;2022-09-09T01:26:13;14.50;99.90
8965;DHT22;4517;49.020;12.066;2022-09-09T01:28:43;14.50;99.90
8965;DHT22;4517;49.020;12.066;2022-09-09T01:31:13;14.50;99.90
8965;DHT22;4517;49.020;12.066;2022-09-09T01:33:39;14.50;99.90
8965;DHT22;4517;49.020;12.066;2022-09-09T01:38:36;14.40;99.90
8965;DHT22;4517;49.020;12.066;2022-09-09T01:41:03;14.40;99.90
8965;DHT22;4517;49.020;12.066;2022-09-09T01:43:29;14.40;99.90
8965;DHT22;4517;49.020;12.066;2022-09-09T01:45:56;14.50;99.90
8965;DHT22;4517;49.020;12.066;2022-09-09T01:48:25;14.50;99.90
8965;DHT22;4517;49.020;12.066;2022-09-09T01:50:50;14.60;99.90
8965;DHT22;4517;49.020;12.066;2022-09-09T01:53:18;14.60;99.90
8965;DHT22;4517;49.020;12.066;2022-09-09T02:04:48;14.60;99.90
8965;DHT22;4517;49.020;12.066;2022-09-09T02:07:28;14.60;99.90
8965;DHT22;4517;49.020;12.066;2022-09-09T02:10:03;14.60;99.90
8965;DHT22;4517;49.020;12.066;2022-09-09T02:12:30;14.60;99.90
8965;DHT22;4517;49.020;12.066;2022-09-09T02:15:02;14.70;99.90
8965;DHT22;4517;49.020;12.066;2022-09-09T02:17:33;14.70;99.90
8965;DHT22;4517;49.020;12.066;2022-09-09T02:20:06;14.70;99.90
8965;DHT22;4517;49.020;12.066;2022-09-09T02:22:34;14.60;99.90
8965;DHT22;4517;49.020;12.066;2022-09-09T02:25:00;14.60;99.90
8965;DHT22;4517;49.020;12.066;2022-09-09T02:27:27;14.50;99.90
8965;DHT22;4517;49.020;12.066;2022-09-09T02:29:53;14.60;99.90
8965;DHT22;4517;49.020;12.066;2022-09-09T02:32:23;14.60;99.90
8965;DHT22;4517;49.020;12.066;2022-09-09T02:34:54;14.70;99.90
8965;DHT22;4517;49.020;12.066;2022-09-09T02:37:23;14.60;99.90
8965;DHT22;4517;49.020;12.066;2022-09-09T02:39:50;14.50;99.90
8965;DHT22;4517;49.020;12.066;2022-09-09T02:42:16;14.50;99.90
8965;DHT22;4517;49.020;12.066;2022-09-09T02:44:42;14.50;99.90
8965;DHT22;4517;49.020;12.066;2022-09-09T02:56:04;14.40;99.90
8965;DHT22;4517;49.020;12.066;2022-09-09T02:58:27;14.50;99.90
8965;DHT22;4517;49.020;12.066;2022-09-09T03:00:53;14.50;99.90
8965;DHT22;4517;49.020;12.066;2022-09-09T03:03:20;14.50;99.90
8965;DHT22;4517;49.020;12.066;2022-09-09T03:05:47;14.50;99.90
8965;DHT22;4517;49.020;12.066;2022-09-09T03:08:13;14.50;99.90
8965;DHT22;4517;49.020;12.066;2022-09-09T03:10:39;14.50;99.90
8965;DHT22;4517;49.020;12.066;2022-09-09T03:13:05;14.50;99.90
8965;DHT22;4517;49.020;12.066;2022-09-09T03:15:32;14.50;99.90
8965;DHT22;4517;49.020;12.066;2022-09-09T03:17:58;14.50;99.90
8965;DHT22;4517;49.020;12.066;2022-09-09T03:20:25;14.50;99.90
8965;DHT22;4517;49.020;12.066;2022-09-09T03:22:52;14.40;99.90
8965;DHT22;4517;49.020;12.066;2022-09-09T03:25:19;14.40;99.90
8965;DHT22;4517;49.020;12.066;2022-09-09T03:27:44;14.40;99.90
8965;DHT22;4517;49.020;12.066;2022-09-09T03:30:10;14.40;99.90
8965;DHT22;4517;49.020;12.066;2022-09-09T03:32:36;14.30;99.90
8965;DHT22;4517;49.020;12.066;2022-09-09T03:35:02;14.30;99.90
8965;DHT22;4517;49.020;12.066;2022-09-09T03:37:28;14.30;99.90
8965;DHT22;4517;49.020;12.066;2022-09-09T03:39:53;14.30;99.90
8965;DHT22;4517;49.020;12.066;2022-09-09T03:42:21;14.30;99.90
8965;DHT22;4517;49.020;12.066;2022-09-09T03:44:47;14.30;99.90
8965;DHT22;4517;49.020;12.066;2022-09-09T03:47:18;14.30;99.90
8965;DHT22;4517;49.020;12.066;2022-09-09T03:49:44;14.20;99.90
8965;DHT22;4517;49.020;12.066;2022-09-09T03:52:09;14.20;99.90
8965;DHT22;4517;49.020;12.066;2022-09-09T03:54:35;14.20;99.90
8965;DHT22;4517;49.020;12.066;2022-09-09T03:57:01;14.20;99.90
8965;DHT22;4517;49.020;12.066;2022-09-09T03:59:27;14.10;99.90
8965;DHT22;4517;49.020;12.066;2022-09-09T04:01:53;14.10;99.90
8965;DHT22;4517;49.020;12.066;2022-09-09T04:04:20;14.10;99.90
8965;DHT22;4517;49.020;12.066;2022-09-09T04:06:46;14.20;99.90
8965;DHT22;4517;49.020;12.066;2022-09-09T04:09:13;14.10;99.90
8965;DHT22;4517;49.020;12.066;2022-09-09T04:11:39;14.10;99.90
8965;DHT22;4517;49.020;12.066;2022-09-09T04:14:04;14.00;99.90
8965;DHT22;4517;49.020;12.066;2022-09-09T04:16:32;14.00;99.90
8965;DHT22;4517;49.020;12.066;2022-09-09T04:18:58;14.00;99.90
8965;DHT22;4517;49.020;12.066;2022-09-09T04:21:25;14.00;99.90
8965;DHT22;4517;49.020;12.066;2022-09-09T04:23:51;14.00;99.90
8965;DHT22;4517;49.020;12.066;2022-09-09T04:26:17;14.10;99.90
8965;DHT22;4517;49.020;12.066;2022-09-09T04:28:42;14.00;99.90
8965;DHT22;4517;49.020;12.066;2022-09-09T04:31:16;14.00;99.90
8965;DHT22;4517;49.020;12.066;2022-09-09T04:33:43;14.00;99.90
8965;DHT22;4517;49.020;12.066;2022-09-09T04:36:08;14.00;99.90
8965;DHT22;4517;49.020;12.066;2022-09-09T04:38:34;14.00;99.90
8965;DHT22;4517;49.020;12.066;2022-09-09T04:40:59;13.90;99.90
8965;DHT22;4517;49.020;12.066;2022-09-09T04:43:25;13.90;99.90
8965;DHT22;4517;49.020;12.066;2022-09-09T04:45:52;13.90;99.90
8965;DHT22;4517;49.020;12.066;2022-09-09T04:48:18;13.90;99.90
8965;DHT22;4517;49.020;12.066;2022-09-09T04:50:44;13.90;99.90
8965;DHT22;4517;49.020;12.066;2022-09-09T04:53:09;14.00;99.90
8965;DHT22;4517;49.020;12.066;2022-09-09T04:55:35;14.00;99.90
8965;DHT22;4517;49.020;12.066;2022-09-09T04:58:05;14.10;99.90
8965;DHT22;4517;49.020;12.066;2022-09-09T05:00:31;14.10;99.90
8965;DHT22;4517;49.020;12.066;2022-09-09T05:02:57;14.20;99.90
8965;DHT22;4517;49.020;12.066;2022-09-09T05:05:23;14.10;99.90
8965;DHT22;4517;49.020;12.066;2022-09-09T05:07:48;14.10;99.90
8965;DHT22;4517;49.020;12.066;2022-09-09T05:10:14;14.20;99.90
8965;DHT22;4517;49.020;12.066;2022-09-09T05:12:42;14.30;99.90
8965;DHT22;4517;49.020;12.066;2022-09-09T05:15:08;14.30;99.90
8965;DHT22;4517;49.020;12.066;2022-09-09T05:17:33;14.40;99.90
8965;DHT22;4517;49.020;12.066;2022-09-09T05:19:59;14.40;99.90
8965;DHT22;4517;49.020;12.066;2022-09-09T05:22:25;14.50;99.90
8965;DHT22;4517;49.020;12.066;2022-09-09T05:24:51;14.60;99.90
8965;DHT22;4517;49.020;12.066;2022-09-09T05:27:17;14.70;99.90
8965;DHT22;4517;49.020;12.066;2022-09-09T05:29:45;14.70;99.90
8965;DHT22;4517;49.020;12.066;2022-09-09T05:32:11;14.80;99.90
8965;DHT22;4517;49.020;12.066;2022-09-09T05:34:37;14.80;99.90
8965;DHT22;4517;49.020;12.066;2022-09-09T05:37:05;14.80;99.90
8965;DHT22;4517;49.020;12.066;2022-09-09T05:39:33;14.90;99.90
8965;DHT22;4517;49.020;12.066;2022-09-09T05:41:59;15.10;99.90
8965;DHT22;4517;49.020;12.066;2022-09-09T05:44:24;15.30;99.90
8965;DHT22;4517;49.020;12.066;2022-09-09T05:46:53;15.50;99.90
8965;DHT22;4517;49.020;12.066;2022-09-09T05:49:19;15.60;99.90
8965;DHT22;4517;49.020;12.066;2022-09-09T05:51:45;15.70;99.90
8965;DHT22;4517;49.020;12.066;2022-09-09T05:54:11;15.70;99.90
8965;DHT22;4517;49.020;12.066;2022-09-09T05:56:40;15.80;99.90
8965;DHT22;4517;49.020;12.066;2022-09-09T05:59:07;15.90;99.90
8965;DHT22;4517;49.020;12.066;2022-09-09T06:01:35;15.90;99.90
8965;DHT22;4517;49.020;12.066;2022-09-09T06:04:02;15.90;99.90
8965;DHT22;4517;49.020;12.066;2022-09-09T06:06:32;16.00;99.90
8965;DHT22;4517;49.020;12.066;2022-09-09T06:09:03;15.80;99.90
8965;DHT22;4517;49.020;12.066;2022-09-09T06:11:32;15.80;99.90
8965;DHT22;4517;49.020;12.066;2022-09-09T06:13:58;15.70;99.90
8965;DHT22;4517;49.020;12.066;2022-09-09T06:16:26;15.50;99.90
8965;DHT22;4517;49.020;12.066;2022-09-09T06:18:53;15.50;99.90
8965;DHT22;4517;49.020;12.066;2022-09-09T06:21:22;15.40;99.90
8965;DHT22;4517;49.020;12.066;2022-09-09T06:23:48;15.50;99.90
8965;DHT22;4517;49.020;12.066;2022-09-09T06:26:20;15.80;99.90
8965;DHT22;4517;49.020;12.066;2022-09-09T06:28:47;16.10;99.90
8965;DHT22;4517;49.020;12.066;2022-09-09T06:31:17;16.10;99.90
8965;DHT22;4517;49.020;12.066;2022-09-09T06:33:46;16.20;99.90
8965;DHT22;4517;49.020;12.066;2022-09-09T06:36:14;16.40;99.90
8965;DHT22;4517;49.020;12.066;2022-09-09T06:38:43;16.80;99.90
8965;DHT22;4517;49.020;12.066;2022-09-09T06:41:10;17.20;99.90
8965;DHT22;4517;49.020;12.066;2022-09-09T06:43:36;17.70;99.90
8965;DHT22;4517;49.020;12.066;2022-09-09T06:46:14;17.90;99.90
8965;DHT22;4517;49.020;12.066;2022-09-09T06:48:41;18.10;99.90
8965;DHT22;4517;49.020;12.066;2022-09-09T06:51:15;18.20;99.90
8965;DHT22;4517;49.020;12.066;2022-09-09T06:53:43;18.10;99.90
8965;DHT22;4517;49.020;12.066;2022-09-09T06:58:39;18.00;99.90
8965;DHT22;4517;49.020;12.066;2022-09-09T07:01:08;18.30;99.90
8965;DHT22;4517;49.020;12.066;2022-09-09T07:03:35;18.50;99.90
8965;DHT22;4517;49.020;12.066;2022-09-09T07:06:01;18.40;99.90
8965;DHT22;4517;49.020;12.066;2022-09-09T07:08:27;18.20;99.90
8965;DHT22;4517;49.020;12.066;2022-09-09T07:10:53;18.30;99.90
8965;DHT22;4517;49.020;12.066;2022-09-09T07:13:23;18.30;99.90
8965;DHT22;4517;49.020;12.066;2022-09-09T07:15:51;18.30;99.90
8965;DHT22;4517;49.020;12.066;2022-09-09T07:18:16;18.20;99.90
8965;DHT22;4517;49.020;12.066;2022-09-09T07:20:42;18.20;99.90
8965;DHT22;4517;49.020;12.066;2022-09-09T07:23:08;18.40;99.90
8965;DHT22;4517;49.020;12.066;2022-09-09T07:25:33;18.40;99.90
8965;DHT22;4517;49.020;12.066;2022-09-09T07:27:59;18.60;99.90
8965;DHT22;4517;49.020;12.066;2022-09-09T07:30:25;18.80;99.90
8965;DHT22;4517;49.020;12.066;2022-09-09T07:32:53;19.10;99.90
8965;DHT22;4517;49.020;12.066;2022-09-09T07:35:19;19.30;99.90
8965;DHT22;4517;49.020;12.066;2022-09-09T07:37:45;19.30;99.90
8965;DHT22;4517;49.020;12.066;2022-09-09T07:40:11;19.30;99.90
8965;DHT22;4517;49.020;12.066;2022-09-09T07:42:36;19.40;99.90
8965;DHT22;4517;49.020;12.066;2022-09-09T07:45:03;19.30;99.90
8965;DHT22;4517;49.020;12.066;2022-09-09T07:47:29;19.10;99.90
8965;DHT22;4517;49.020;12.066;2022-09-09T07:49:55;18.70;99.90
8965;DHT22;4517;49.020;12.066;2022-09-09T07:52:21;18.50;99.90
8965;DHT22;4517;49.020;12.066;2022-09-09T07:54:47;18.10;99.90
8965;DHT22;4517;49.020;12.066;2022-09-09T07:57:12;17.50;99.90
8965;DHT22;4517;49.020;12.066;2022-09-09T07:59:38;17.00;99.90
8965;DHT22;4517;49.020;12.066;2022-09-09T08:02:04;16.60;99.90
8965;DHT22;4517;49.020;12.066;2022-09-09T08:04:29;16.20;99.90
8965;DHT22;4517;49.020;12.066;2022-09-09T08:06:57;16.00;99.90
8965;DHT22;4517;49.020;12.066;2022-09-09T08:09:24;15.70;99.90
8965;DHT22;4517;49.020;12.066;2022-09-09T08:11:52;15.50;99.90
8965;DHT22;4517;49.020;12.066;2022-09-09T08:14:18;15.20;99.90
8965;DHT22;4517;49.020;12.066;2022-09-09T08:16:47;15.10;99.90
8965;DHT22;4517;49.020;12.066;2022-09-09T08:19:13;15.10;99.90
8965;DHT22;4517;49.020;12.066;2022-09-09T08:21:41;15.20;99.90
8965;DHT22;4517;49.020;12.066;2022-09-09T08:24:09;15.20;99.90
8965;DHT22;4517;49.020;12.066;2022-09-09T08:26:38;15.10;99.90
8965;DHT22;4517;49.020;12.066;2022-09-09T08:29:06;15.00;99.90
8965;DHT22;4517;49.020;12.066;2022-09-09T08:31:40;15.00;99.90
8965;DHT22;4517;49.020;12.066;2022-09-09T08:34:07;15.00;99.90
8965;DHT22;4517;49.020;12.066;2022-09-09T08:36:35;15.00;99.90
8965;DHT22;4517;49.020;12.066;2022-09-09T08:39:03;15.00;99.90
8965;DHT22;4517;49.020;12.066;2022-09-09T08:41:39;15.10;99.90
8965;DHT22;4517;49.020;12.066;2022-09-09T08:45:02;15.00;99.90
8965;DHT22;4517;49.020;12.066;2022-09-09T08:50:07;15.30;99.90
8965;DHT22;4517;49.020;12.066;2022-09-09T08:58:30;16.00;99.90
8965;DHT22;4517;49.020;12.066;2022-09-09T09:01:09;16.30;99.90
8965;DHT22;4517;49.020;12.066;2022-09-09T09:09:01;16.10;99.90
8965;DHT22;4517;49.020;12.066;2022-09-09T09:11:37;16.60;99.90
8965;DHT22;4517;49.020;12.066;2022-09-09T09:14:09;17.10;99.90
8965;DHT22;4517;49.020;12.066;2022-09-09T09:19:16;17.20;99.90
8965;DHT22;4517;49.020;12.066;2022-09-09T09:21:58;17.60;99.90
8965;DHT22;4517;49.020;12.066;2022-09-09T09:24:54;17.90;99.90
8965;DHT22;4517;49.020;12.066;2022-09-09T09:27:33;18.20;99.90
8965;DHT22;4517;49.020;12.066;2022-09-09T09:30:10;18.20;99.90
8965;DHT22;4517;49.020;12.066;2022-09-09T09:32:40;17.90;99.90
8965;DHT22;4517;49.020;12.066;2022-09-09T09:35:12;17.90;99.90
8965;DHT22;4517;49.020;12.066;2022-09-09T09:37:40;18.00;99.90
8965;DHT22;4517;49.020;12.066;2022-09-09T09:40:17;18.20;99.90
8965;DHT22;4517;49.020;12.066;2022-09-09T09:43:00;18.00;99.90
8965;DHT22;4517;49.020;12.066;2022-09-09T09:45:32;17.90;99.90
8965;DHT22;4517;49.020;12.066;2022-09-09T09:48:18;18.40;99.90
8965;DHT22;4517;49.020;12.066;2022-09-09T09:50:50;18.70;99.90
8965;DHT22;4517;49.020;12.066;2022-09-09T09:53:36;19.00;99.90
8965;DHT22;4517;49.020;12.066;2022-09-09T09:56:04;19.60;99.90
8965;DHT22;4517;49.020;12.066;2022-09-09T09:58:33;20.00;99.90
8965;DHT22;4517;49.020;12.066;2022-09-09T10:01:03;20.20;99.90
8965;DHT22;4517;49.020;12.066;2022-09-09T10:03:31;20.50;99.90
8965;DHT22;4517;49.020;12.066;2022-09-09T10:05:57;20.90;99.90
8965;DHT22;4517;49.020;12.066;2022-09-09T10:08:27;20.80;99.90
8965;DHT22;4517;49.020;12.066;2022-09-09T10:11:02;20.90;99.90
8965;DHT22;4517;49.020;12.066;2022-09-09T10:14:04;21.00;99.90
8965;DHT22;4517;49.020;12.066;2022-09-09T10:16:41;21.10;99.90
8965;DHT22;4517;49.020;12.066;2022-09-09T10:19:15;21.50;99.90
8965;DHT22;4517;49.020;12.066;2022-09-09T10:24:50;21.80;99.90
8965;DHT22;4517;49.020;12.066;2022-09-09T10:27:19;21.90;99.90
8965;DHT22;4517;49.020;12.066;2022-09-09T10:30:12;21.40;99.90
8965;DHT22;4517;49.020;12.066;2022-09-09T10:32:45;21.30;99.90
8965;DHT22;4517;49.020;12.066;2022-09-09T10:38:05;21.50;99.90
8965;DHT22;4517;49.020;12.066;2022-09-09T10:40:43;21.60;99.90
8965;DHT22;4517;49.020;12.066;2022-09-09T10:54:09;21.80;99.90
8965;DHT22;4517;49.020;12.066;2022-09-09T10:56:38;21.90;99.90
8965;DHT22;4517;49.020;12.066;2022-09-09T10:59:17;22.30;99.90
8965;DHT22;4517;49.020;12.066;2022-09-09T11:01:47;22.80;99.90
8965;DHT22;4517;49.020;12.066;2022-09-09T11:04:22;22.50;99.90
8965;DHT22;4517;49.020;12.066;2022-09-09T11:06:52;22.40;99.90
8965;DHT22;4517;49.020;12.066;2022-09-09T11:09:23;22.10;99.90
8965;DHT22;4517;49.020;12.066;2022-09-09T11:11:54;21.50;99.90
8965;DHT22;4517;49.020;12.066;2022-09-09T11:17:03;21.30;99.90
8965;DHT22;4517;49.020;12.066;2022-09-09T11:19:42;20.80;99.90
8965;DHT22;4517;49.020;12.066;2022-09-09T11:22:32;20.80;99.90
8965;DHT22;4517;49.020;12.066;2022-09-09T11:27:29;20.70;99.90
8965;DHT22;4517;49.020;12.066;2022-09-09T11:30:18;20.50;99.90
8965;DHT22;4517;49.020;12.066;2022-09-09T11:41:09;20.60;99.90
8965;DHT22;4517;49.020;12.066;2022-09-09T11:43:41;21.00;99.90
8965;DHT22;4517;49.020;12.066;2022-09-09T11:46:08;21.50;99.90
8965;DHT22;4517;49.020;12.066;2022-09-09T11:48:43;21.90;99.90
8965;DHT22;4517;49.020;12.066;2022-09-09T11:51:27;22.00;99.90
8965;DHT22;4517;49.020;12.066;2022-09-09T11:56:29;22.20;99.90
8965;DHT22;4517;49.020;12.066;2022-09-09T11:59:02;22.50;99.90
8965;DHT22;4517;49.020;12.066;2022-09-09T12:01:41;22.30;99.90
8965;DHT22;4517;49.020;12.066;2022-09-09T12:04:27;22.10;99.90
8965;DHT22;4517;49.020;12.066;2022-09-09T12:12:35;22.60;99.90
8965;DHT22;4517;49.020;12.066;2022-09-09T12:17:54;22.70;99.90
8965;DHT22;4517;49.020;12.066;2022-09-09T12:20:31;23.00;99.90
8965;DHT22;4517;49.020;12.066;2022-09-09T12:23:11;22.90;99.90
8965;DHT22;4517;49.020;12.066;2022-09-09T12:28:58;23.00;99.90
8965;DHT22;4517;49.020;12.066;2022-09-09T12:31:35;23.10;99.90
8965;DHT22;4517;49.020;12.066;2022-09-09T12:37:26;22.80;99.90
8965;DHT22;4517;49.020;12.066;2022-09-09T12:39:57;22.70;99.90
8965;DHT22;4517;49.020;12.066;2022-09-09T12:42:24;22.60;99.90
8965;DHT22;4517;49.020;12.066;2022-09-09T12:44:57;22.70;99.90
8965;DHT22;4517;49.020;12.066;2022-09-09T12:47:41;22.30;99.90
8965;DHT22;4517;49.020;12.066;2022-09-09T12:50:23;21.90;99.90
8965;DHT22;4517;49.020;12.066;2022-09-09T12:52:55;21.80;99.90
8965;DHT22;4517;49.020;12.066;2022-09-09T12:55:25;21.30;99.90
8965;DHT22;4517;49.020;12.066;2022-09-09T12:57:53;21.20;99.90
8965;DHT22;4517;49.020;12.066;2022-09-09T13:00:21;21.10;99.90
8965;DHT22;4517;49.020;12.066;2022-09-09T13:02:53;20.50;99.90
8965;DHT22;4517;49.020;12.066;2022-09-09T13:05:22;20.30;99.90
8965;DHT22;4517;49.020;12.066;2022-09-09T13:07:48;20.30;99.90
8965;DHT22;4517;49.020;12.066;2022-09-09T13:10:17;20.30;99.90
8965;DHT22;4517;49.020;12.066;2022-09-09T13:12:45;20.50;99.90
8965;DHT22;4517;49.020;12.066;2022-09-09T13:15:22;20.50;99.90
8965;DHT22;4517;49.020;12.066;2022-09-09T13:18:14;20.50;99.90
8965;DHT22;4517;49.020;12.066;2022-09-09T13:20:46;20.90;99.90
8965;DHT22;4517;49.020;12.066;2022-09-09T13:23:12;21.20;99.90
8965;DHT22;4517;49.020;12.066;2022-09-09T13:25:38;21.70;99.90
8965;DHT22;4517;49.020;12.066;2022-09-09T13:28:05;22.40;99.90
8965;DHT22;4517;49.020;12.066;2022-09-09T13:30:43;23.10;99.90
8965;DHT22;4517;49.020;12.066;2022-09-09T13:33:22;23.70;99.90
8965;DHT22;4517;49.020;12.066;2022-09-09T13:35:57;24.10;99.90
8965;DHT22;4517;49.020;12.066;2022-09-09T13:38:24;24.10;99.90
8965;DHT22;4517;49.020;12.066;2022-09-09T13:40:59;24.40;99.90
8965;DHT22;4517;49.020;12.066;2022-09-09T13:43:28;24.40;99.90
8965;DHT22;4517;49.020;12.066;2022-09-09T13:45:57;24.00;99.90
8965;DHT22;4517;49.020;12.066;2022-09-09T13:48:23;23.60;99.90
8965;DHT22;4517;49.020;12.066;2022-09-09T13:50:59;23.30;99.90
8965;DHT22;4517;49.020;12.066;2022-09-09T13:53:25;23.10;99.90
8965;DHT22;4517;49.020;12.066;2022-09-09T13:55:50;22.80;99.90
8965;DHT22;4517;49.020;12.066;2022-09-09T13:58:17;22.90;99.90
8965;DHT22;4517;49.020;12.066;2022-09-09T14:00:48;23.00;99.90
8965;DHT22;4517;49.020;12.066;2022-09-09T14:03:15;23.10;99.90
8965;DHT22;4517;49.020;12.066;2022-09-09T14:05:40;23.30;99.90
8965;DHT22;4517;49.020;12.066;2022-09-09T14:08:11;23.30;99.90
8965;DHT22;4517;49.020;12.066;2022-09-09T14:10:40;23.50;99.90
8965;DHT22;4517;49.020;12.066;2022-09-09T14:13:05;23.90;99.90
8965;DHT22;4517;49.020;12.066;2022-09-09T14:15:31;24.00;99.90
8965;DHT22;4517;49.020;12.066;2022-09-09T14:18:00;24.00;99.90
8965;DHT22;4517;49.020;12.066;2022-09-09T14:20:25;24.10;99.90
8965;DHT22;4517;49.020;12.066;2022-09-09T14:22:53;23.90;99.90
8965;DHT22;4517;49.020;12.066;2022-09-09T14:25:22;23.60;99.90
8965;DHT22;4517;49.020;12.066;2022-09-09T14:27:48;23.30;99.90
8965;DHT22;4517;49.020;12.066;2022-09-09T14:30:16;23.20;99.90
8965;DHT22;4517;49.020;12.066;2022-09-09T14:32:42;22.80;99.90
8965;DHT22;4517;49.020;12.066;2022-09-09T14:35:08;22.40;99.90
8965;DHT22;4517;49.020;12.066;2022-09-09T14:37:34;23.10;99.90
8965;DHT22;4517;49.020;12.066;2022-09-09T14:40:00;23.00;99.90
8965;DHT22;4517;49.020;12.066;2022-09-09T14:42:25;23.30;99.90
8965;DHT22;4517;49.020;12.066;2022-09-09T14:44:52;23.50;99.90
8965;DHT22;4517;49.020;12.066;2022-09-09T14:47:17;23.40;99.90
8965;DHT22;4517;49.020;12.066;2022-09-09T14:49:43;23.20;99.90
8965;DHT22;4517;49.020;12.066;2022-09-09T14:52:08;23.00;99.90
8965;DHT22;4517;49.020;12.066;2022-09-09T14:54:34;22.90;99.90
8965;DHT22;4517;49.020;12.066;2022-09-09T14:57:00;22.80;99.90
8965;DHT22;4517;49.020;12.066;2022-09-09T14:59:25;22.90;99.90
8965;DHT22;4517;49.020;12.066;2022-09-09T15:01:52;22.90;99.90
8965;DHT22;4517;49.020;12.066;2022-09-09T15:04:18;22.70;99.90
8965;DHT22;4517;49.020;12.066;2022-09-09T15:06:44;22.70;99.90
8965;DHT22;4517;49.020;12.066;2022-09-09T15:09:14;22.80;99.90
8965;DHT22;4517;49.020;12.066;2022-09-09T15:11:39;22.80;99.90
8965;DHT22;4517;49.020;12.066;2022-09-09T15:14:06;22.80;99.90
8965;DHT22;4517;49.020;12.066;2022-09-09T15:16:32;22.80;99.90
8965;DHT22;4517;49.020;12.066;2022-09-09T15:18:59;22.50;99.90
8965;DHT22;4517;49.020;12.066;2022-09-09T15:21:27;22.30;99.90
8965;DHT22;4517;49.020;12.066;2022-09-09T15:23:54;22.20;99.90
8965;DHT22;4517;49.020;12.066;2022-09-09T15:26:20;21.90;99.90
8965;DHT22;4517;49.020;12.066;2022-09-09T15:28:47;22.00;99.90
8965;DHT22;4517;49.020;12.066;2022-09-09T15:31:15;21.90;99.90
8965;DHT22;4517;49.020;12.066;2022-09-09T15:33:47;21.80;99.90
8965;DHT22;4517;49.020;12.066;2022-09-09T15:36:24;21.60;99.90
8965;DHT22;4517;49.020;12.066;2022-09-09T15:38:51;21.60;99.90
8965;DHT22;4517;49.020;12.066;2022-09-09T15:41:18;21.60;99.90
8965;DHT22;4517;49.020;12.066;2022-09-09T15:43:48;21.40;99.90
8965;DHT22;4517;49.020;12.066;2022-09-09T15:46:30;21.50;99.90
8965;DHT22;4517;49.020;12.066;2022-09-09T15:48:58;21.50;99.90
8965;DHT22;4517;49.020;12.066;2022-09-09T15:51:27;21.80;99.90
8965;DHT22;4517;49.020;12.066;2022-09-09T15:53:57;22.10;99.90
8965;DHT22;4517;49.020;12.066;2022-09-09T15:56:24;22.10;99.90
8965;DHT22;4517;49.020;12.066;2022-09-09T15:58:50;22.00;99.90
8965;DHT22;4517;49.020;12.066;2022-09-09T16:01:16;21.90;99.90
8965;DHT22;4517;49.020;12.066;2022-09-09T16:03:45;21.70;99.90
8965;DHT22;4517;49.020;12.066;2022-09-09T16:06:17;21.60;99.90
8965;DHT22;4517;49.020;12.066;2022-09-09T16:08:44;21.50;99.90
8965;DHT22;4517;49.020;12.066;2022-09-09T16:11:25;21.30;99.90
8965;DHT22;4517;49.020;12.066;2022-09-09T16:13:52;21.10;99.90
8965;DHT22;4517;49.020;12.066;2022-09-09T16:16:21;20.90;99.90
8965;DHT22;4517;49.020;12.066;2022-09-09T16:18:50;20.60;99.90
8965;DHT22;4517;49.020;12.066;2022-09-09T16:21:22;20.50;99.90
8965;DHT22;4517;49.020;12.066;2022-09-09T16:23:50;20.20;99.90
8965;DHT22;4517;49.020;12.066;2022-09-09T16:26:17;20.00;99.90
8965;DHT22;4517;49.020;12.066;2022-09-09T16:28:43;19.90;99.90
8965;DHT22;4517;49.020;12.066;2022-09-09T16:31:18;19.80;99.90
8965;DHT22;4517;49.020;12.066;2022-09-09T16:33:44;19.70;99.90
8965;DHT22;4517;49.020;12.066;2022-09-09T16:36:12;19.60;99.90
8965;DHT22;4517;49.020;12.066;2022-09-09T16:38:39;19.60;99.90
8965;DHT22;4517;49.020;12.066;2022-09-09T16:41:05;19.60;99.90
8965;DHT22;4517;49.020;12.066;2022-09-09T16:43:32;19.60;99.90
8965;DHT22;4517;49.020;12.066;2022-09-09T16:45:58;19.60;99.90
8965;DHT22;4517;49.020;12.066;2022-09-09T16:48:32;19.60;99.90
8965;DHT22;4517;49.020;12.066;2022-09-09T16:51:02;19.70;99.90
8965;DHT22;4517;49.020;12.066;2022-09-09T16:53:30;19.70;99.90
8965;DHT22;4517;49.020;12.066;2022-09-09T16:55:55;19.70;99.90
8965;DHT22;4517;49.020;12.066;2022-09-09T16:58:21;19.70;99.90
8965;DHT22;4517;49.020;12.066;2022-09-09T17:00:46;19.60;99.90
8965;DHT22;4517;49.020;12.066;2022-09-09T17:03:13;19.20;99.90
8965;DHT22;4517;49.020;12.066;2022-09-09T17:05:41;18.90;99.90
8965;DHT22;4517;49.020;12.066;2022-09-09T17:08:07;18.60;99.90
8965;DHT22;4517;49.020;12.066;2022-09-09T17:10:33;18.40;99.90
8965;DHT22;4517;49.020;12.066;2022-09-09T17:12:58;18.30;99.90
8965;DHT22;4517;49.020;12.066;2022-09-09T17:15:24;18.20;99.90
8965;DHT22;4517;49.020;12.066;2022-09-09T17:17:49;18.10;99.90
8965;DHT22;4517;49.020;12.066;2022-09-09T17:20:18;18.10;99.90
8965;DHT22;4517;49.020;12.066;2022-09-09T17:22:44;18.00;99.90
8965;DHT22;4517;49.020;12.066;2022-09-09T17:25:10;17.90;99.90
8965;DHT22;4517;49.020;12.066;2022-09-09T17:27:35;17.80;99.90
8965;DHT22;4517;49.020;12.066;2022-09-09T17:30:01;17.70;99.90
8965;DHT22;4517;49.020;12.066;2022-09-09T17:32:28;17.50;99.90
8965;DHT22;4517;49.020;12.066;2022-09-09T17:34:54;17.40;99.90
8965;DHT22;4517;49.020;12.066;2022-09-09T17:37:20;17.30;99.90
8965;DHT22;4517;49.020;12.066;2022-09-09T17:39:45;17.10;99.90
8965;DHT22;4517;49.020;12.066;2022-09-09T17:42:11;16.90;99.90
8965;DHT22;4517;49.020;12.066;2022-09-09T17:44:37;16.70;99.90
8965;DHT22;4517;49.020;12.066;2022-09-09T17:47:04;16.60;99.90
8965;DHT22;4517;49.020;12.066;2022-09-09T17:49:31;16.60;99.90
8965;DHT22;4517;49.020;12.066;2022-09-09T17:51:56;16.40;99.90
8965;DHT22;4517;49.020;12.066;2022-09-09T17:54:22;16.30;99.90
8965;DHT22;4517;49.020;12.066;2022-09-09T17:56:48;16.10;99.90
8965;DHT22;4517;49.020;12.066;2022-09-09T17:59:15;15.90;99.90